Metar z połowy godziny Komunikat METAR ze strony awiacja.imgw.pl Metar G30 EPKT METAR EPKT 240430Z 16005KT 3900 BR NSC M02/M03 Q1024 =